Time;durP1;ratioP1;P1;durP2;ratioP2;P2;SDS_P1;SDS_P2;PMS_P1;PMS_P2;Temp;Humidity;BMP_temperature;BMP_pressure;BME280_temperature;BME280_humidity;BME280_pressure;Samples;Min_cycle;Max_cycle;Signal;HPM_P1;HPM_P2
2022/08/09 00:01:10;;;;;;;3.72;3.42;;;28.20;57.60;;;;;;5080288;28;20032;-73
2022/08/09 00:03:36;;;;;;;4.85;4.35;;;28.30;57.60;;;;;;5072694;28;20119;-73
2022/08/09 00:06:02;;;;;;;3.60;3.30;;;28.20;57.70;;;;;;5071340;28;20024;-75
2022/08/09 00:08:27;;;;;;;9.48;4.47;;;28.30;57.60;;;;;;5075846;28;20386;-73
2022/08/09 00:10:53;;;;;;;4.55;3.70;;;28.20;57.60;;;;;;5077309;28;20028;-73
2022/08/09 00:13:19;;;;;;;4.43;3.30;;;28.20;57.80;;;;;;5071715;28;20057;-73
2022/08/09 00:15:45;;;;;;;5.15;4.40;;;28.10;57.90;;;;;;5075129;28;20299;-73
2022/08/09 00:18:13;;;;;;;3.63;3.33;;;28.10;57.80;;;;;;5063145;28;20388;-73
2022/08/09 00:20:39;;;;;;;5.35;3.75;;;28.20;57.90;;;;;;5080062;28;20046;-73
2022/08/09 00:23:05;;;;;;;4.10;3.70;;;28.20;58.00;;;;;;5068687;28;20037;-72
2022/08/09 00:25:31;;;;;;;4.60;4.05;;;28.00;57.90;;;;;;5073580;28;20102;-73
2022/08/09 00:27:57;;;;;;;4.05;3.72;;;28.10;58.00;;;;;;5071335;28;20056;-73
2022/08/09 00:30:23;;;;;;;4.75;4.00;;;28.10;58.10;;;;;;5078696;28;20054;-73
2022/08/09 00:32:49;;;;;;;8.30;3.95;;;28.00;58.10;;;;;;5067058;28;20477;-73
2022/08/09 00:35:15;;;;;;;4.07;3.65;;;28.20;58.10;;;;;;5067317;28;20111;-73
2022/08/09 00:37:41;;;;;;;3.75;3.45;;;28.20;58.10;;;;;;5078011;28;20037;-73
2022/08/09 00:40:07;;;;;;;3.63;3.33;;;28.10;58.20;;;;;;5074556;28;20055;-73
2022/08/09 00:42:34;;;;;;;5.43;4.00;;;28.20;58.20;;;;;;5055209;28;20037;-73
2022/08/09 00:44:59;;;;;;;3.85;3.22;;;28.20;58.20;;;;;;5052355;28;20048;-74
2022/08/09 00:47:25;;;;;;;4.38;3.72;;;28.20;58.20;;;;;;5064787;28;20032;-73
2022/08/09 00:49:52;;;;;;;4.35;3.95;;;28.20;58.20;;;;;;5064428;28;20384;-73
2022/08/09 00:52:19;;;;;;;4.97;3.30;;;28.30;58.20;;;;;;5055689;28;20028;-73
2022/08/09 00:54:47;;;;;;;4.68;3.92;;;28.30;58.20;;;;;;5064915;28;20086;-73
2022/08/09 00:57:13;;;;;;;4.07;3.67;;;28.30;58.20;;;;;;5055742;28;20043;-73
2022/08/09 00:59:42;;;;;;;3.78;3.40;;;28.20;58.20;;;;;;5067021;28;20835;-73
2022/08/09 01:02:09;;;;;;;5.35;4.00;;;28.30;58.20;;;;;;5060022;28;20041;-73
2022/08/09 01:05:02;;;;;;;5.43;3.65;;;28.30;58.20;;;;;;5063528;28;20021;-73
2022/08/09 01:07:54;;;;;;;3.58;3.28;;;28.30;58.20;;;;;;5049072;28;20042;-73
2022/08/09 01:10:26;;;;;;;3.88;3.47;;;28.40;58.20;;;;;;5058205;28;20029;-73
2022/08/09 01:13:24;;;;;;;4.97;3.70;;;28.50;58.20;;;;;;5056787;28;20098;-73
2022/08/09 01:15:53;;;;;;;4.05;3.53;;;28.40;58.20;;;;;;5060287;28;20273;-73
2022/08/09 01:18:28;;;;;;;5.15;4.10;;;28.40;58.20;;;;;;5061103;28;20025;-73
2022/08/09 01:21:15;;;;;;;3.72;3.42;;;28.40;58.10;;;;;;5057474;28;20490;-73
2022/08/09 01:24:01;;;;;;;3.78;3.47;;;28.40;58.10;;;;;;5052888;28;20052;-73
2022/08/09 01:26:54;;;;;;;3.67;3.38;;;28.40;58.10;;;;;;5057027;28;20033;-73
2022/08/09 01:29:36;;;;;;;3.95;3.42;;;28.50;58.10;;;;;;5062968;28;20087;-73
2022/08/09 01:32:06;;;;;;;3.30;3.03;;;28.50;58.10;;;;;;5057237;28;20040;-73
2022/08/09 01:34:34;;;;;;;3.17;2.95;;;28.60;58.00;;;;;;5054563;28;20462;-73
2022/08/09 01:37:02;;;;;;;5.82;3.50;;;28.60;58.00;;;;;;5060448;28;20452;-73
2022/08/09 01:39:29;;;;;;;3.60;3.30;;;28.50;58.00;;;;;;5060443;28;20056;-73
2022/08/09 01:41:57;;;;;;;3.75;3.45;;;28.60;58.00;;;;;;5052219;28;20361;-73
2022/08/09 01:44:24;;;;;;;3.78;3.40;;;28.50;57.90;;;;;;5049241;28;20029;-73
2022/08/09 01:46:51;;;;;;;4.13;3.72;;;28.60;58.00;;;;;;5054184;28;20387;-73
2022/08/09 01:49:19;;;;;;;4.07;3.33;;;28.60;57.90;;;;;;5058283;28;20489;-73
2022/08/09 01:52:00;;;;;;;4.22;3.75;;;28.70;57.90;;;;;;5054157;28;20171;-73
2022/08/09 01:54:34;;;;;;;4.03;3.60;;;28.60;57.90;;;;;;5051765;28;20040;-73
2022/08/09 01:57:18;;;;;;;4.60;3.60;;;28.60;57.80;;;;;;5050479;28;20454;-73
2022/08/09 01:59:47;;;;;;;5.47;4.47;;;28.60;57.80;;;;;;5062988;28;20029;-73
2022/08/09 02:02:14;;;;;;;3.63;3.25;;;28.60;57.80;;;;;;5060461;28;20079;-73
2022/08/09 02:04:42;;;;;;;3.65;3.35;;;28.70;57.80;;;;;;5058244;28;20055;-73
2022/08/09 02:07:16;;;;;;;5.57;3.60;;;28.60;57.80;;;;;;5064234;28;20066;-73
2022/08/09 02:09:50;;;;;;;4.20;3.80;;;28.60;57.80;;;;;;5062243;28;20052;-73
2022/08/09 02:12:20;;;;;;;4.10;3.72;;;28.70;57.80;;;;;;5055605;28;20495;-73
2022/08/09 02:14:53;;;;;;;5.10;3.65;;;28.60;57.70;;;;;;5059831;28;20033;-73
2022/08/09 02:17:26;;;;;;;4.47;3.70;;;28.70;57.70;;;;;;5053966;28;20503;-73
2022/08/09 02:19:53;;;;;;;5.13;4.32;;;28.60;57.80;;;;;;5061353;28;20048;-73
2022/08/09 02:22:27;;;;;;;5.63;4.07;;;28.50;57.80;;;;;;5058353;28;20044;-73
2022/08/09 02:24:57;;;;;;;4.10;3.70;;;28.60;57.70;;;;;;5053731;28;20032;-73
2022/08/09 02:27:25;;;;;;;4.35;3.92;;;28.50;57.70;;;;;;5052412;28;20088;-73
2022/08/09 02:29:54;;;;;;;4.10;3.70;;;28.50;57.80;;;;;;5064787;28;20101;-73
2022/08/09 02:32:23;;;;;;;4.22;3.83;;;28.50;57.80;;;;;;5072656;28;20028;-73
2022/08/09 02:34:56;;;;;;;4.53;4.00;;;28.40;57.70;;;;;;5072620;28;20028;-73
2022/08/09 02:37:24;;;;;;;;;;;28.40;57.70;;;;;;5072898;28;20435;-73
2022/08/09 02:39:59;;;;;;;4.88;3.35;;;28.60;57.80;;;;;;5072208;28;20405;-73
2022/08/09 02:42:32;;;;;;;5.93;4.03;;;28.40;57.80;;;;;;5072402;28;20042;-73
2022/08/09 02:45:03;;;;;;;7.53;4.10;;;28.60;57.80;;;;;;5072341;28;20025;-73
2022/08/09 02:47:32;;;;;;;4.63;3.72;;;28.60;57.80;;;;;;5072446;28;20035;-73
2022/08/09 02:50:12;;;;;;;5.47;3.58;;;28.30;57.80;;;;;;5070810;28;20029;-73
2022/08/09 02:52:53;;;;;;;5.50;3.88;;;28.50;57.80;;;;;;5071294;28;20041;-74
2022/08/09 02:55:21;;;;;;;5.13;3.88;;;28.60;57.80;;;;;;5072272;28;20029;-73
2022/08/09 02:57:49;;;;;;;4.13;3.45;;;28.40;57.80;;;;;;5072234;28;20120;-73
2022/08/09 03:00:15;;;;;;;3.60;3.25;;;28.50;57.80;;;;;;5069760;28;20054;-74
2022/08/09 03:02:46;;;;;;;5.45;3.85;;;28.50;57.80;;;;;;5072220;28;20040;-74
2022/08/09 03:05:13;;;;;;;4.18;3.72;;;28.40;57.80;;;;;;5072027;28;20048;-73
2022/08/09 03:07:40;;;;;;;4.30;3.90;;;28.60;57.80;;;;;;5072281;28;20060;-73
2022/08/09 03:10:08;;;;;;;4.82;3.78;;;28.40;57.80;;;;;;5071893;28;20090;-72
2022/08/09 03:12:36;;;;;;;6.32;4.03;;;28.50;57.80;;;;;;5072055;28;20104;-73
2022/08/09 03:15:03;;;;;;;6.32;4.25;;;28.50;57.80;;;;;;5072017;28;20814;-75
2022/08/09 03:17:31;;;;;;;4.43;4.00;;;28.60;57.80;;;;;;5072156;28;20028;-73
2022/08/09 03:19:59;;;;;;;4.35;3.80;;;28.50;57.80;;;;;;5070316;28;20033;-74
2022/08/09 03:22:28;;;;;;;4.63;4.18;;;28.50;57.80;;;;;;5060925;28;20377;-73
2022/08/09 03:24:54;;;;;;;5.78;4.25;;;28.40;57.70;;;;;;5071799;28;20055;-73
2022/08/09 03:27:21;;;;;;;5.63;4.22;;;28.50;57.70;;;;;;5071824;28;20033;-73
2022/08/09 03:29:51;;;;;;;4.20;3.63;;;28.50;57.70;;;;;;5071680;28;20090;-73
2022/08/09 03:32:18;;;;;;;5.78;4.82;;;28.60;57.60;;;;;;5072041;28;20104;-73
2022/08/09 03:34:45;;;;;;;5.20;4.68;;;28.60;57.60;;;;;;5071891;28;20039;-73
2022/08/09 03:37:11;;;;;;;7.07;4.25;;;28.60;57.60;;;;;;5071805;28;20032;-73
2022/08/09 03:39:38;;;;;;;4.43;3.88;;;28.70;57.60;;;;;;5053916;28;20061;-73
2022/08/09 03:42:04;;;;;;;5.82;4.20;;;28.50;57.60;;;;;;5051635;28;20162;-74
2022/08/09 03:44:30;;;;;;;4.97;3.53;;;28.50;57.60;;;;;;5050417;28;20504;-73
2022/08/09 03:46:56;;;;;;;4.93;3.80;;;28.60;57.60;;;;;;5051581;28;20071;-73
2022/08/09 03:49:25;;;;;;;4.13;3.75;;;28.40;57.60;;;;;;5051696;28;20114;-73
2022/08/09 03:51:56;;;;;;;4.50;3.78;;;28.50;57.60;;;;;;5051638;28;20068;-73
2022/08/09 03:54:25;;;;;;;5.15;4.13;;;28.40;57.60;;;;;;5051683;28;20032;-80
2022/08/09 03:56:52;;;;;;;5.38;4.30;;;28.50;57.40;;;;;;5051653;28;20037;-80
2022/08/09 03:59:19;;;;;;;5.50;4.50;;;28.40;56.60;;;;;;5050230;28;20361;-82
2022/08/09 04:01:47;;;;;;;5.85;4.20;;;28.30;55.40;;;;;;5050302;28;20037;-80
2022/08/09 04:04:15;;;;;;;11.30;5.05;;;28.30;56.00;;;;;;5051377;28;20063;-79
2022/08/09 04:06:41;;;;;;;6.32;4.43;;;28.20;55.20;;;;;;5051388;28;20029;-80
2022/08/09 04:09:07;;;;;;;7.30;4.63;;;28.40;55.10;;;;;;5049907;28;20025;-79
2022/08/09 04:12:08;;;;;;;5.07;4.38;;;28.20;54.40;;;;;;5051090;28;20040;-80
2022/08/09 04:14:35;;;;;;;5.10;4.13;;;28.10;54.40;;;;;;5048648;28;20061;-79
2022/08/09 04:17:01;;;;;;;4.38;3.65;;;28.20;55.30;;;;;;5050757;28;20060;-83
2022/08/09 04:19:27;;;;;;;3.05;2.72;;;28.20;55.60;;;;;;5040721;28;20041;-84
2022/08/09 04:21:53;;;;;;;7.65;4.40;;;28.30;56.00;;;;;;5052863;28;20148;-85
2022/08/09 04:24:19;;;;;;;8.77;5.35;;;28.40;55.80;;;;;;5056429;28;20068;-81
2022/08/09 04:26:45;;;;;;;6.18;5.15;;;28.50;59.80;;;;;;5052936;28;20056;-79
2022/08/09 04:29:11;;;;;;;5.32;4.60;;;28.60;56.50;;;;;;5035807;28;20126;-75
2022/08/09 04:31:37;;;;;;;7.20;4.18;;;28.60;55.40;;;;;;5057734;28;20380;-82
2022/08/09 04:34:03;;;;;;;6.07;4.68;;;28.50;54.90;;;;;;5052654;28;20127;-80
2022/08/09 04:36:31;;;;;;;4.78;4.25;;;28.40;55.40;;;;;;5052568;28;20091;-82
2022/08/09 04:39:03;;;;;;;5.53;4.47;;;28.40;55.80;;;;;;5052478;28;20086;-80
2022/08/09 04:41:30;;;;;;;6.90;4.57;;;28.40;55.90;;;;;;5052462;28;20045;-82
2022/08/09 04:43:57;;;;;;;7.45;4.22;;;28.40;55.90;;;;;;5035687;28;20049;-81
2022/08/09 04:46:23;;;;;;;4.70;4.10;;;28.40;56.10;;;;;;5052398;28;20125;-81
2022/08/09 04:48:49;;;;;;;6.68;4.85;;;28.40;56.10;;;;;;5052438;28;20037;-83
2022/08/09 04:51:15;;;;;;;11.73;4.90;;;28.30;56.10;;;;;;5067007;28;20076;-79
2022/08/09 04:53:41;;;;;;;5.80;4.22;;;28.50;56.20;;;;;;5075223;28;20036;-80
2022/08/09 04:56:07;;;;;;;5.43;4.32;;;28.40;56.20;;;;;;5073299;28;20377;-83
2022/08/09 04:58:33;;;;;;;7.05;2.97;;;28.40;56.20;;;;;;5073402;28;20036;-82
2022/08/09 05:01:01;;;;;;;3.30;3.00;;;28.40;55.90;;;;;;5060568;28;20445;-76
2022/08/09 05:03:27;;;;;;;1.92;1.83;;;28.40;54.90;;;;;;5051821;28;20067;-81
2022/08/09 05:05:53;;;;;;;4.38;3.42;;;28.30;54.90;;;;;;5053004;28;20108;-83
2022/08/09 05:08:19;;;;;;;3.97;2.50;;;28.30;54.90;;;;;;5053179;28;20143;-81
2022/08/09 05:10:45;;;;;;;7.82;4.50;;;28.30;55.30;;;;;;5070481;28;20032;-82
2022/08/09 05:13:12;;;;;;;5.28;3.03;;;28.40;55.50;;;;;;5070946;28;20052;-80
2022/08/09 05:15:38;;;;;;;6.13;2.45;;;28.40;55.90;;;;;;5048147;28;20163;-75
2022/08/09 05:18:04;;;;;;;2.63;2.42;;;28.30;55.20;;;;;;5067008;28;20048;-85
2022/08/09 05:20:30;;;;;;;4.68;4.25;;;28.40;55.90;;;;;;5065387;28;20125;-80
2022/08/09 05:22:58;;;;;;;3.67;3.38;;;28.30;55.70;;;;;;5070743;28;20071;-85
2022/08/09 05:25:24;;;;;;;5.18;2.63;;;28.30;56.00;;;;;;5070906;28;20571;-81
2022/08/09 05:27:50;;;;;;;4.13;3.45;;;28.30;55.70;;;;;;5051779;28;20112;-81
2022/08/09 05:30:17;;;;;;;3.45;1.83;;;28.20;56.20;;;;;;5070574;28;20037;-81
2022/08/09 05:32:44;;;;;;;5.93;3.30;;;28.30;56.40;;;;;;5070598;28;20128;-79
2022/08/09 05:35:10;;;;;;;7.85;3.55;;;28.40;56.60;;;;;;5070951;28;20615;-81
2022/08/09 05:37:37;;;;;;;4.53;2.63;;;28.30;56.50;;;;;;5070703;28;20037;-80
2022/08/09 05:40:04;;;;;;;5.80;3.55;;;28.40;57.60;;;;;;5070494;28;20068;-76
2022/08/09 05:42:30;;;;;;;3.55;2.30;;;28.30;57.50;;;;;;5070072;28;20048;-79
2022/08/09 05:44:56;;;;;;;3.35;3.05;;;28.40;57.10;;;;;;5070081;28;20032;-78
2022/08/09 05:47:24;;;;;;;4.45;3.63;;;28.50;57.20;;;;;;5066320;28;20045;-79
2022/08/09 05:49:51;;;;;;;6.78;4.40;;;28.30;57.10;;;;;;5052278;28;20024;-77
2022/08/09 05:52:17;;;;;;;2.35;2.22;;;28.40;57.20;;;;;;5052424;28;20055;-79
2022/08/09 05:54:43;;;;;;;8.07;5.50;;;28.30;57.30;;;;;;5052427;28;20029;-79
2022/08/09 05:57:09;;;;;;;7.18;5.03;;;28.30;57.70;;;;;;5052265;28;20339;-79
2022/08/09 05:59:35;;;;;;;8.00;5.53;;;28.40;58.00;;;;;;5051989;28;20037;-77
2022/08/09 06:02:03;;;;;;;8.95;5.63;;;28.50;58.20;;;;;;5052404;28;20108;-82
2022/08/09 06:04:29;;;;;;;8.32;5.15;;;28.60;58.60;;;;;;5044614;28;20021;-79
2022/08/09 06:06:55;;;;;;;5.75;5.15;;;28.50;58.20;;;;;;5056656;28;20029;-82
2022/08/09 06:09:21;;;;;;;10.07;5.32;;;28.40;56.00;;;;;;5073641;28;20063;-82
2022/08/09 06:11:47;;;;;;;6.03;4.75;;;28.50;55.30;;;;;;5065255;28;20017;-75
2022/08/09 06:14:16;;;;;;;6.78;6.00;;;28.30;56.50;;;;;;5058538;28;20032;-80
2022/08/09 06:16:42;;;;;;;6.57;5.60;;;28.40;56.30;;;;;;5054747;28;20025;-74
2022/08/09 06:19:08;;;;;;;5.43;4.93;;;28.40;55.80;;;;;;5070383;28;20123;-78
2022/08/09 06:21:34;;;;;;;7.00;6.13;;;28.40;55.30;;;;;;5050271;28;20049;-78
2022/08/09 06:24:00;;;;;;;7.25;6.20;;;28.50;54.90;;;;;;5047669;28;20095;-78
2022/08/09 06:26:26;;;;;;;6.78;5.93;;;28.60;55.20;;;;;;5055662;28;20035;-76
2022/08/09 06:28:54;;;;;;;7.15;6.00;;;28.60;55.20;;;;;;5087132;28;20101;-74
2022/08/09 06:31:20;;;;;;;8.82;5.50;;;28.50;54.80;;;;;;5087768;28;20054;-75
2022/08/09 06:33:46;;;;;;;7.70;6.15;;;28.60;55.30;;;;;;5087601;28;20058;-75
2022/08/09 06:36:12;;;;;;;7.05;6.35;;;28.60;55.50;;;;;;5087849;28;20052;-77
2022/08/09 06:38:39;;;;;;;6.65;5.70;;;28.60;54.70;;;;;;5049955;28;20044;-77
2022/08/09 06:41:06;;;;;;;6.40;5.10;;;28.60;55.60;;;;;;5065579;28;20048;-78
2022/08/09 06:43:32;;;;;;;7.93;5.63;;;28.60;55.10;;;;;;5066532;28;20374;-75
2022/08/09 06:45:58;;;;;;;6.95;5.82;;;28.50;55.60;;;;;;5085731;28;20112;-76
2022/08/09 06:48:24;;;;;;;10.07;6.00;;;28.60;55.40;;;;;;5087531;28;20089;-78
2022/08/09 06:50:52;;;;;;;6.93;5.10;;;28.60;55.70;;;;;;5087286;28;20055;-74
2022/08/09 06:53:18;;;;;;;7.65;5.93;;;28.60;55.90;;;;;;5073049;28;20040;-76
2022/08/09 06:55:44;;;;;;;7.13;5.70;;;28.60;55.70;;;;;;5053983;28;20064;-74
2022/08/09 06:58:10;;;;;;;7.53;5.00;;;28.60;55.90;;;;;;5048695;28;20036;-75
2022/08/09 07:00:37;;;;;;;5.75;4.90;;;28.60;56.20;;;;;;5049580;28;20037;-74
2022/08/09 07:03:03;;;;;;;10.15;6.07;;;28.70;56.30;;;;;;5050768;28;20115;-76
2022/08/09 07:05:29;;;;;;;9.23;5.38;;;28.70;56.00;;;;;;5050936;28;20044;-76
2022/08/09 07:07:55;;;;;;;6.78;5.30;;;28.60;56.00;;;;;;5052086;28;20033;-74
2022/08/09 07:10:22;;;;;;;6.80;5.30;;;28.70;56.20;;;;;;5051974;28;20029;-75
2022/08/09 07:12:49;;;;;;;7.72;4.53;;;28.60;56.20;;;;;;5061120;28;20037;-77
2022/08/09 07:15:15;;;;;;;6.55;5.63;;;28.70;56.30;;;;;;5051613;28;20028;-76
2022/08/09 07:17:41;;;;;;;6.57;4.55;;;28.50;56.50;;;;;;5051591;28;20060;-77
2022/08/09 07:20:08;;;;;;;9.02;5.43;;;28.50;56.50;;;;;;5051772;28;20060;-77
2022/08/09 07:22:34;;;;;;;6.10;4.88;;;28.40;56.50;;;;;;5050428;28;20036;-76
2022/08/09 07:25:02;;;;;;;6.80;5.40;;;28.50;56.40;;;;;;5033316;28;20390;-75
2022/08/09 07:27:28;;;;;;;6.07;5.30;;;28.40;56.60;;;;;;5037273;28;20473;-75
2022/08/09 07:29:55;;;;;;;9.63;5.60;;;28.50;56.60;;;;;;5058153;28;20035;-78
2022/08/09 07:32:21;;;;;;;8.32;5.03;;;28.40;56.80;;;;;;5071524;28;20036;-75
2022/08/09 07:34:47;;;;;;;9.07;6.43;;;28.40;56.80;;;;;;5056189;28;20037;-75
2022/08/09 07:37:13;;;;;;;6.53;5.35;;;28.40;56.70;;;;;;5049822;28;20048;-75
2022/08/09 07:39:39;;;;;;;7.55;5.63;;;28.40;56.70;;;;;;5051534;28;20389;-73
2022/08/09 07:42:06;;;;;;;7.82;5.57;;;28.60;60.90;;;;;;5052144;28;20532;-75
2022/08/09 07:44:31;;;;;;;3.83;3.47;;;28.80;60.50;;;;;;5051875;28;20100;-76
2022/08/09 07:46:57;;;;;;;6.03;4.60;;;29.20;58.40;;;;;;5051553;28;20064;-75
2022/08/09 07:49:23;;;;;;;4.07;3.15;;;29.30;58.50;;;;;;5051485;28;20065;-75
2022/08/09 07:51:49;;;;;;;2.80;1.80;;;29.20;58.90;;;;;;5053529;28;20045;-74
2022/08/09 07:54:15;;;;;;;3.70;3.25;;;29.10;58.30;;;;;;5054323;28;20021;-75
2022/08/09 07:56:42;;;;;;;4.53;4.13;;;29.00;59.40;;;;;;5056022;28;20132;-78
2022/08/09 07:59:08;;;;;;;4.55;3.88;;;29.10;66.60;;;;;;5055888;28;20385;-78
2022/08/09 08:01:34;;;;;;;5.40;3.22;;;29.10;60.60;;;;;;5055427;28;20049;-77
2022/08/09 08:04:04;;;;;;;10.45;5.28;;;29.20;64.60;;;;;;5055687;28;20107;-76
2022/08/09 08:06:31;;;;;;;10.73;5.25;;;29.10;70.70;;;;;;5055529;28;20029;-77
2022/08/09 08:08:57;;;;;;;14.98;5.85;;;29.30;64.50;;;;;;5060366;28;20036;-76
2022/08/09 08:11:22;;;;;;;2.22;1.77;;;29.10;68.40;;;;;;5060350;28;20032;-74
2022/08/09 08:13:49;;;;;;;7.40;5.55;;;29.10;63.90;;;;;;5068805;28;20028;-75
2022/08/09 08:16:15;;;;;;;6.90;3.85;;;29.30;60.40;;;;;;5069125;28;20028;-77
2022/08/09 08:18:41;;;;;;;4.85;2.47;;;29.20;60.00;;;;;;5075435;28;20497;-75
2022/08/09 08:21:06;;;;;;;2.42;1.80;;;29.20;60.60;;;;;;5065207;28;20401;-78
2022/08/09 08:23:33;;;;;;;5.32;4.25;;;29.20;59.30;;;;;;5075079;28;20112;-77
2022/08/09 08:25:58;;;;;;;14.77;6.55;;;29.30;62.90;;;;;;5060926;28;20504;-76
2022/08/09 08:28:24;;;;;;;6.55;5.15;;;29.40;59.30;;;;;;5069214;28;20047;-75
2022/08/09 08:30:50;;;;;;;18.60;5.95;;;29.40;59.10;;;;;;5063784;28;20063;-75
2022/08/09 08:33:16;;;;;;;5.28;4.80;;;29.50;58.90;;;;;;5063660;28;20060;-76
2022/08/09 08:35:43;;;;;;;7.68;4.95;;;29.60;57.60;;;;;;5063982;28;20059;-74
2022/08/09 08:38:09;;;;;;;57.13;40.25;;;29.40;57.00;;;;;;5071594;28;20032;-76
2022/08/09 08:40:35;;;;;;;11.00;6.07;;;29.50;57.10;;;;;;5075020;28;20048;-77
2022/08/09 08:43:03;;;;;;;4.90;2.60;;;29.60;56.50;;;;;;5075271;28;20078;-74
2022/08/09 08:45:34;;;;;;;4.38;3.97;;;29.60;56.70;;;;;;5074772;28;20452;-75
2022/08/09 08:48:01;;;;;;;4.68;2.88;;;29.60;56.70;;;;;;5075013;28;20032;-75
2022/08/09 08:50:27;;;;;;;7.53;6.35;;;29.60;56.70;;;;;;5074732;28;20041;-78
2022/08/09 08:52:53;;;;;;;10.20;6.22;;;29.60;56.60;;;;;;5066422;28;20024;-76
2022/08/09 08:55:19;;;;;;;8.52;6.18;;;29.50;56.40;;;;;;5074823;28;20024;-73
2022/08/09 08:57:46;;;;;;;8.45;6.80;;;29.50;56.20;;;;;;5074746;28;20078;-72
2022/08/09 09:00:12;;;;;;;8.05;5.55;;;29.50;55.80;;;;;;5070155;28;20047;-74
2022/08/09 09:02:39;;;;;;;8.82;5.30;;;29.40;55.80;;;;;;5061119;28;20052;-76
2022/08/09 09:05:06;;;;;;;7.40;6.18;;;29.50;55.60;;;;;;5054155;28;20541;-76
2022/08/09 09:07:34;;;;;;;7.70;5.50;;;29.60;56.80;;;;;;5059706;28;20087;-78
2022/08/09 09:10:06;;;;;;;5.10;4.30;;;29.50;56.30;;;;;;5074910;28;20032;-81
2022/08/09 09:12:32;;;;;;;6.82;4.70;;;29.60;56.60;;;;;;5057824;28;20375;-77
2022/08/09 09:14:59;;;;;;;4.47;3.72;;;29.70;56.80;;;;;;5054492;28;20032;-79
2022/08/09 09:17:26;;;;;;;2.47;2.28;;;29.60;56.60;;;;;;5054289;28;20029;-79
2022/08/09 09:19:53;;;;;;;1.77;1.67;;;29.60;56.60;;;;;;5053569;28;20157;-76
2022/08/09 09:22:20;;;;;;;7.65;5.93;;;29.50;57.00;;;;;;5031947;28;20041;-77
2022/08/09 09:24:52;;;;;;;3.28;2.95;;;29.60;57.50;;;;;;5043084;28;20033;-81
2022/08/09 09:27:21;;;;;;;2.88;2.65;;;29.60;61.00;;;;;;5055373;28;20408;-75
2022/08/09 09:29:48;;;;;;;5.05;4.38;;;29.80;60.30;;;;;;5065864;28;20087;-73
2022/08/09 09:32:25;;;;;;;2.92;2.65;;;29.70;59.40;;;;;;5021044;28;20465;-73
2022/08/09 09:35:05;;;;;;;4.28;3.88;;;29.80;58.10;;;;;;5057697;28;20562;-72
2022/08/09 09:37:32;;;;;;;5.53;4.22;;;29.90;58.80;;;;;;5031207;28;20040;-74
2022/08/09 09:39:58;;;;;;;4.18;2.53;;;29.70;58.10;;;;;;5031117;28;20049;-77
2022/08/09 09:42:28;;;;;;;3.53;3.03;;;29.80;57.20;;;;;;5051627;28;20025;-74
2022/08/09 09:44:58;;;;;;;9.48;5.10;;;29.70;57.70;;;;;;5045582;28;20060;-76
2022/08/09 09:47:25;;;;;;;4.05;3.65;;;29.70;59.30;;;;;;5059327;28;20184;-74
2022/08/09 09:49:53;;;;;;;7.75;6.70;;;29.80;60.20;;;;;;5051594;28;20509;-75
2022/08/09 09:52:20;;;;;;;6.60;5.57;;;29.80;58.90;;;;;;5054357;28;20059;-78
2022/08/09 09:54:46;;;;;;;6.50;5.78;;;29.80;59.20;;;;;;5057528;28;20516;-75
2022/08/09 09:57:20;;;;;;;9.00;5.70;;;29.80;58.20;;;;;;5053180;28;20441;-74
2022/08/09 09:59:48;;;;;;;5.82;4.97;;;29.70;57.60;;;;;;5067456;28;20036;-76
2022/08/09 10:02:16;;;;;;;5.78;5.18;;;29.50;58.10;;;;;;5072852;28;20060;-74
2022/08/09 10:04:42;;;;;;;5.28;4.78;;;29.50;58.70;;;;;;5067158;28;20025;-74
2022/08/09 10:07:21;;;;;;;5.13;4.53;;;29.50;58.30;;;;;;5059094;28;20029;-77
2022/08/09 10:09:50;;;;;;;9.63;6.22;;;29.50;58.30;;;;;;5053179;28;20033;-75
2022/08/09 10:12:52;;;;;;;6.43;5.82;;;29.70;61.80;;;;;;5053300;28;20040;-76
2022/08/09 10:15:18;;;;;;;6.97;5.97;;;29.90;64.40;;;;;;5049706;28;20041;-73
2022/08/09 10:17:46;;;;;;;7.80;5.68;;;30.10;68.30;;;;;;5050480;28;20637;-71
2022/08/09 10:20:22;;;;;;;7.13;6.32;;;30.20;62.60;;;;;;5050468;28;20491;-73
2022/08/09 10:22:52;;;;;;;6.82;6.13;;;30.00;60.20;;;;;;5050358;28;20048;-72
2022/08/09 10:25:19;;;;;;;3.65;3.17;;;30.00;58.70;;;;;;5059697;28;20041;-73
2022/08/09 10:27:45;;;;;;;7.70;5.82;;;29.90;57.90;;;;;;5053656;28;20369;-73
2022/08/09 10:30:13;;;;;;;6.90;5.75;;;29.90;57.90;;;;;;5069247;28;20056;-73
2022/08/09 10:32:40;;;;;;;7.35;6.35;;;29.90;58.20;;;;;;5055331;28;20126;-74
2022/08/09 10:35:07;;;;;;;7.45;6.03;;;29.70;57.90;;;;;;5051455;28;20037;-76
2022/08/09 10:37:34;;;;;;;6.95;5.95;;;29.80;57.60;;;;;;5050133;28;20048;-76
2022/08/09 10:40:00;;;;;;;7.93;5.85;;;29.80;57.60;;;;;;5050000;28;20417;-77
2022/08/09 10:42:27;;;;;;;7.72;6.40;;;29.70;57.60;;;;;;5050370;28;20040;-76
2022/08/09 10:45:06;;;;;;;8.65;5.50;;;29.80;57.50;;;;;;5052488;28;20496;-75
2022/08/09 10:47:35;;;;;;;6.55;5.70;;;29.80;57.40;;;;;;5067251;28;20036;-76
2022/08/09 10:50:25;;;;;;;8.48;5.43;;;29.70;57.30;;;;;;5069960;28;20036;-75
2022/08/09 10:53:10;;;;;;;7.32;6.25;;;29.60;57.40;;;;;;5072383;28;20020;-76
2022/08/09 10:55:36;;;;;;;5.88;5.30;;;29.60;57.40;;;;;;5072424;28;20048;-76
2022/08/09 10:58:02;;;;;;;7.40;4.97;;;29.70;57.40;;;;;;5062271;28;20038;-75
2022/08/09 11:00:35;;;;;;;11.73;6.55;;;29.60;57.40;;;;;;5052165;28;20033;-76
2022/08/09 11:03:02;;;;;;;8.55;5.40;;;29.60;57.10;;;;;;5063695;28;20028;-76
2022/08/09 11:05:29;;;;;;;6.43;5.38;;;29.70;57.30;;;;;;5049548;28;20397;-74
2022/08/09 11:07:55;;;;;;;5.78;5.22;;;29.50;57.20;;;;;;5049417;28;20052;-77
2022/08/09 11:10:39;;;;;;;6.10;5.43;;;29.50;57.30;;;;;;5049559;28;20036;-75
2022/08/09 11:13:18;;;;;;;7.15;5.35;;;29.60;57.40;;;;;;5029374;28;20483;-78
2022/08/09 11:15:45;;;;;;;7.28;5.63;;;29.50;57.40;;;;;;5029559;28;20052;-74
2022/08/09 11:18:41;;;;;;;5.82;5.30;;;29.40;57.60;;;;;;5037373;28;20404;-77
2022/08/09 11:21:07;;;;;;;5.57;4.93;;;29.40;58.10;;;;;;5069653;28;20119;-77
2022/08/09 11:23:59;;;;;;;7.00;5.63;;;29.40;58.30;;;;;;5069406;28;20135;-76
2022/08/09 11:26:38;;;;;;;9.20;5.72;;;29.30;58.20;;;;;;5069340;28;20032;-75
2022/08/09 11:29:05;;;;;;;7.07;6.22;;;29.30;58.60;;;;;;5069319;28;20032;-76
2022/08/09 11:31:46;;;;;;;6.32;5.47;;;29.30;61.30;;;;;;5069342;28;20040;-77
2022/08/09 11:34:21;;;;;;;9.15;6.00;;;29.30;61.80;;;;;;5069515;28;20500;-73
2022/08/09 11:36:48;;;;;;;7.97;5.70;;;29.40;61.90;;;;;;5069196;28;20407;-74
2022/08/09 11:39:14;;;;;;;6.75;6.07;;;29.30;60.50;;;;;;5069102;28;20088;-75
2022/08/09 11:41:40;;;;;;;6.18;5.57;;;29.30;59.60;;;;;;5069048;28;20517;-77
2022/08/09 11:44:07;;;;;;;8.48;6.07;;;29.30;59.30;;;;;;5071197;28;20159;-77
2022/08/09 11:46:56;;;;;;;6.68;5.35;;;29.20;58.90;;;;;;5051200;28;20485;-77
2022/08/09 11:49:57;;;;;;;9.85;6.15;;;29.20;58.70;;;;;;5050056;28;20481;-76
2022/08/09 11:52:24;;;;;;;6.85;5.60;;;29.10;58.70;;;;;;5049048;28;20037;-76
2022/08/09 11:55:29;;;;;;;6.30;5.25;;;29.10;58.60;;;;;;5046187;28;20129;-79
2022/08/09 11:57:56;;;;;;;5.78;4.68;;;29.20;58.50;;;;;;4970027;28;20499;-77
2022/08/09 12:00:23;;;;;;;7.20;6.45;;;29.30;58.40;;;;;;4969483;28;20046;-76
2022/08/09 12:02:50;;;;;;;6.75;5.85;;;29.40;58.40;;;;;;4970344;28;20427;-76
2022/08/09 12:05:16;;;;;;;9.27;6.07;;;29.30;58.10;;;;;;4970214;28;20043;-78
2022/08/09 12:07:42;;;;;;;7.82;6.00;;;29.20;57.90;;;;;;4970195;28;20046;-75
2022/08/09 12:10:10;;;;;;;6.78;5.97;;;29.20;57.90;;;;;;4970265;28;20514;-75
2022/08/09 12:12:48;;;;;;;10.45;5.15;;;29.30;58.00;;;;;;4969857;28;20039;-75
2022/08/09 12:15:23;;;;;;;6.15;5.50;;;29.30;57.90;;;;;;4932248;28;20046;-76
2022/08/09 12:17:50;;;;;;;6.63;5.68;;;29.30;58.20;;;;;;4969735;28;20038;-79
2022/08/09 12:20:19;;;;;;;8.90;6.45;;;29.30;58.20;;;;;;4970197;28;20053;-78
2022/08/09 12:22:47;;;;;;;7.65;6.63;;;29.40;58.10;;;;;;4970383;28;20058;-76
2022/08/09 12:25:15;;;;;;;10.77;6.05;;;29.40;58.00;;;;;;4970311;28;20039;-75
2022/08/09 12:27:42;;;;;;;7.97;6.40;;;29.40;58.20;;;;;;4985542;28;20057;-75
2022/08/09 12:30:09;;;;;;;7.25;5.57;;;29.40;58.10;;;;;;5009287;28;20118;-71
2022/08/09 12:32:35;;;;;;;7.00;6.07;;;29.40;58.10;;;;;;5009134;28;20070;-76
2022/08/09 12:35:04;;;;;;;6.60;5.43;;;29.40;58.10;;;;;;5035473;28;20145;-74
2022/08/09 12:37:32;;;;;;;5.75;5.25;;;29.60;57.60;;;;;;5052256;28;20083;-74
2022/08/09 12:40:05;;;;;;;7.30;6.05;;;29.40;57.80;;;;;;5053420;28;20053;-74
2022/08/09 12:42:32;;;;;;;6.10;5.50;;;29.40;57.80;;;;;;5054608;28;20513;-74
2022/08/09 12:44:58;;;;;;;6.03;4.82;;;29.50;57.90;;;;;;5054542;28;20043;-74
2022/08/09 12:47:25;;;;;;;5.88;5.32;;;29.40;57.90;;;;;;5054174;28;20040;-74
2022/08/09 12:52:40;;;;;;;7.90;5.78;;;29.40;57.60;;;;;;5053648;28;20163;-74
2022/08/09 12:55:09;;;;;;;6.32;5.78;;;29.50;57.70;;;;;;5053766;28;20039;-74
2022/08/09 12:57:45;;;;;;;9.02;6.53;;;29.40;57.70;;;;;;5058369;28;20370;-74